Time;durP1;ratioP1;P1;durP2;ratioP2;P2;SDS_P1;SDS_P2;PMS_P1;PMS_P2;Temp;Humidity;BMP_temperature;BMP_pressure;BME280_temperature;BME280_humidity;BME280_pressure;Samples;Min_cycle;Max_cycle;Signal;HPM_P1;HPM_P2
2022/07/03 00:01:09;;;;;;;2.85;1.27;;;18.50;99.90;;;;;;4900779;29;20045;-68
2022/07/03 00:03:35;;;;;;;2.80;1.50;;;18.50;99.90;;;;;;4900700;29;20507;-68
2022/07/03 00:06:01;;;;;;;2.63;1.70;;;18.50;99.90;;;;;;4900680;29;20049;-67
2022/07/03 00:08:26;;;;;;;1.55;1.20;;;18.40;99.90;;;;;;4900570;29;20417;-68
2022/07/03 00:10:52;;;;;;;2.97;1.90;;;18.40;99.90;;;;;;4899313;29;20474;-68
2022/07/03 00:13:18;;;;;;;3.42;1.83;;;18.40;99.90;;;;;;4900197;29;20504;-68
2022/07/03 00:15:43;;;;;;;2.78;1.65;;;18.40;99.90;;;;;;4900383;29;20055;-67
2022/07/03 00:18:10;;;;;;;3.50;1.60;;;18.40;99.90;;;;;;4900258;29;20336;-68
2022/07/03 00:20:42;;;;;;;3.40;1.75;;;18.30;99.90;;;;;;4883545;29;20068;-68
2022/07/03 00:23:13;;;;;;;3.28;1.55;;;18.30;99.90;;;;;;4899938;29;20049;-68
2022/07/03 00:25:40;;;;;;;2.80;1.60;;;18.30;99.90;;;;;;4900429;29;20490;-67
2022/07/03 00:28:07;;;;;;;2.05;1.45;;;18.30;99.90;;;;;;4899565;29;20478;-67
2022/07/03 00:30:34;;;;;;;2.58;1.65;;;18.20;99.90;;;;;;4899887;29;20501;-68
2022/07/03 00:33:03;;;;;;;2.33;1.45;;;18.20;99.90;;;;;;4899316;29;20048;-68
2022/07/03 00:35:32;;;;;;;2.40;1.60;;;18.20;99.90;;;;;;4898604;29;20497;-68
2022/07/03 00:37:58;;;;;;;2.00;1.52;;;18.10;99.90;;;;;;4900385;29;20059;-68
2022/07/03 00:40:24;;;;;;;2.17;1.75;;;18.20;99.90;;;;;;4898900;29;20089;-68
2022/07/03 00:42:53;;;;;;;1.60;1.48;;;18.10;99.90;;;;;;4900055;29;20052;-67
2022/07/03 00:45:20;;;;;;;3.00;1.83;;;18.10;99.90;;;;;;4899943;29;20052;-68
2022/07/03 00:47:47;;;;;;;3.35;1.80;;;18.10;99.90;;;;;;4900116;29;20045;-68
2022/07/03 00:50:13;;;;;;;2.58;1.77;;;18.10;99.90;;;;;;4883273;29;20080;-67
2022/07/03 00:52:46;;;;;;;4.18;1.60;;;18.00;99.90;;;;;;4899236;29;20049;-68
2022/07/03 00:55:16;;;;;;;2.80;1.60;;;18.00;99.90;;;;;;4899764;29;20053;-68
2022/07/03 00:57:47;;;;;;;2.53;1.80;;;18.00;99.90;;;;;;4898312;29;20060;-68
2022/07/03 01:00:15;;;;;;;1.95;1.75;;;17.90;99.90;;;;;;4883097;29;20056;-68
2022/07/03 01:02:43;;;;;;;2.22;1.67;;;17.90;99.90;;;;;;4900027;29;20530;-68
2022/07/03 01:05:09;;;;;;;3.05;1.88;;;17.90;99.90;;;;;;4883073;29;20485;-68
2022/07/03 01:07:43;;;;;;;2.28;1.92;;;17.90;99.90;;;;;;4898400;29;20056;-68
2022/07/03 01:10:16;;;;;;;2.67;2.05;;;17.80;99.90;;;;;;4899615;29;20052;-68
2022/07/03 01:12:52;;;;;;;;;;;17.70;99.90;;;;;;4899556;29;20620;-68
2022/07/03 01:15:35;;;;;;;2.45;2.10;;;17.70;99.90;;;;;;4899500;29;19931;-68
2022/07/03 01:18:23;;;;;;;2.65;2.45;;;17.70;99.90;;;;;;4900155;29;20101;-69
2022/07/03 01:20:58;;;;;;;3.85;2.50;;;17.60;99.90;;;;;;4899609;29;20083;-68
2022/07/03 01:23:40;;;;;;;2.78;2.40;;;17.60;99.90;;;;;;4898525;29;20045;-68
2022/07/03 01:26:08;;;;;;;2.97;2.25;;;17.60;99.90;;;;;;4899364;29;20052;-68
2022/07/03 01:28:39;;;;;;;2.90;2.60;;;17.50;99.90;;;;;;4898837;29;20489;-68
2022/07/03 01:31:06;;;;;;;4.40;2.97;;;17.50;99.90;;;;;;4882622;29;20049;-68
2022/07/03 01:33:35;;;;;;;4.38;2.20;;;17.50;99.90;;;;;;4899057;29;20097;-69
2022/07/03 01:36:00;;;;;;;3.25;2.13;;;17.40;99.90;;;;;;4899118;29;20189;-69
2022/07/03 01:38:35;;;;;;;2.55;1.92;;;17.40;99.90;;;;;;4899040;29;20067;-69
2022/07/03 01:41:03;;;;;;;3.05;2.25;;;17.40;99.90;;;;;;4899390;29;20067;-69
2022/07/03 01:43:54;;;;;;;3.88;3.13;;;17.40;99.90;;;;;;4897605;29;20048;-69
2022/07/03 01:46:27;;;;;;;2.60;2.40;;;17.40;99.90;;;;;;4898994;29;20065;-69
2022/07/03 01:48:55;;;;;;;4.18;2.38;;;17.30;99.90;;;;;;4899025;29;20491;-69
2022/07/03 01:51:23;;;;;;;3.95;2.60;;;17.30;99.90;;;;;;4897579;29;20049;-68
2022/07/03 01:53:50;;;;;;;3.33;2.53;;;17.30;99.90;;;;;;4898219;29;20040;-69
2022/07/03 01:56:18;;;;;;;2.58;2.38;;;17.20;99.90;;;;;;4899041;29;20052;-69
2022/07/03 01:58:43;;;;;;;3.05;2.50;;;17.20;99.90;;;;;;4898707;29;20090;-69
2022/07/03 02:01:25;;;;;;;3.50;2.80;;;17.10;99.90;;;;;;4897515;29;20045;-68
2022/07/03 02:04:24;;;;;;;3.40;2.58;;;17.10;99.90;;;;;;4897957;29;20465;-68
2022/07/03 02:07:02;;;;;;;3.50;2.97;;;17.10;99.90;;;;;;4897657;29;20053;-69
2022/07/03 02:09:39;;;;;;;3.60;2.90;;;17.00;99.90;;;;;;4897192;29;20052;-68
2022/07/03 02:12:11;;;;;;;3.85;2.88;;;17.00;99.90;;;;;;4898614;29;20045;-68
2022/07/03 02:14:39;;;;;;;3.88;2.65;;;17.00;99.90;;;;;;4898576;29;20091;-68
2022/07/03 02:17:16;;;;;;;5.22;3.00;;;16.90;99.90;;;;;;4898492;29;20048;-68
2022/07/03 02:19:54;;;;;;;3.35;2.60;;;16.90;99.90;;;;;;4882537;29;20064;-68
2022/07/03 02:22:27;;;;;;;6.15;2.88;;;16.90;99.90;;;;;;4896787;29;20053;-69
2022/07/03 02:24:57;;;;;;;3.25;2.95;;;16.80;99.90;;;;;;4898551;29;20080;-69
2022/07/03 02:27:28;;;;;;;3.88;3.47;;;16.80;99.90;;;;;;4898444;29;20086;-68
2022/07/03 02:30:02;;;;;;;3.42;3.13;;;16.70;99.90;;;;;;4897472;29;20048;-67
2022/07/03 02:32:32;;;;;;;3.80;2.85;;;16.70;99.90;;;;;;4898331;29;20052;-68
2022/07/03 02:35:05;;;;;;;4.00;3.40;;;16.70;99.90;;;;;;4898658;29;20064;-68
2022/07/03 02:37:43;;;;;;;4.63;3.45;;;16.60;99.90;;;;;;4897148;29;20052;-68
2022/07/03 02:40:20;;;;;;;3.90;2.65;;;16.60;99.90;;;;;;4898431;29;20047;-68
2022/07/03 02:43:08;;;;;;;4.10;3.42;;;16.60;99.90;;;;;;4898373;29;20044;-68
2022/07/03 02:45:51;;;;;;;6.28;3.53;;;16.50;99.90;;;;;;4894068;29;20060;-68
2022/07/03 02:48:22;;;;;;;;;;;16.50;99.90;;;;;;4898718;29;20064;-69
2022/07/03 02:50:52;;;;;;;4.88;3.47;;;16.40;99.90;;;;;;4898222;29;19930;-68
2022/07/03 02:53:35;;;;;;;5.43;3.83;;;16.40;99.90;;;;;;4898120;29;20084;-68
2022/07/03 02:56:18;;;;;;;4.28;3.67;;;16.40;99.90;;;;;;4897116;29;20055;-68
2022/07/03 02:59:11;;;;;;;3.78;3.33;;;16.30;99.90;;;;;;4898177;29;20123;-68
2022/07/03 03:01:52;;;;;;;4.07;3.72;;;16.30;99.90;;;;;;4898261;29;20053;-69
2022/07/03 03:04:25;;;;;;;4.57;4.13;;;16.30;99.90;;;;;;4896917;29;20104;-68
2022/07/03 03:07:01;;;;;;;4.43;3.78;;;16.30;99.90;;;;;;4897760;29;20453;-68
2022/07/03 03:09:34;;;;;;;4.20;3.80;;;16.20;99.90;;;;;;4898315;29;20400;-68
2022/07/03 03:12:01;;;;;;;5.25;3.90;;;16.20;99.90;;;;;;4881405;29;20080;-68
2022/07/03 03:14:37;;;;;;;4.32;3.65;;;16.20;99.90;;;;;;4898127;29;20091;-68
2022/07/03 03:17:06;;;;;;;4.22;3.83;;;16.10;99.90;;;;;;4898325;29;20055;-67
2022/07/03 03:19:40;;;;;;;4.80;4.00;;;16.10;99.90;;;;;;4899281;29;20471;-68
2022/07/03 03:22:45;;;;;;;4.05;3.60;;;16.10;99.90;;;;;;4901438;29;20053;-68
2022/07/03 03:25:11;;;;;;;5.20;4.25;;;16.10;99.90;;;;;;4900668;29;20478;-68
2022/07/03 03:27:37;;;;;;;6.15;4.55;;;16.10;99.90;;;;;;4901404;29;20100;-67
2022/07/03 03:30:06;;;;;;;4.72;3.70;;;16.00;99.90;;;;;;4884628;29;20052;-68
2022/07/03 03:32:34;;;;;;;5.13;3.97;;;16.00;99.90;;;;;;4901250;29;20088;-68
2022/07/03 03:35:00;;;;;;;4.95;3.88;;;16.00;99.90;;;;;;4900569;29;20438;-67
2022/07/03 03:37:26;;;;;;;3.92;3.63;;;16.00;99.90;;;;;;4897909;29;20128;-68
2022/07/03 03:39:52;;;;;;;3.83;3.53;;;16.00;99.90;;;;;;4901253;29;20049;-68
2022/07/03 03:42:17;;;;;;;4.50;3.90;;;16.00;99.90;;;;;;4899916;29;20474;-68
2022/07/03 03:44:43;;;;;;;4.07;3.55;;;16.00;99.90;;;;;;4915584;29;20132;-68
2022/07/03 03:47:09;;;;;;;4.57;4.18;;;16.00;99.90;;;;;;4901283;29;20059;-68
2022/07/03 03:49:35;;;;;;;5.75;4.60;;;16.00;99.90;;;;;;4915583;29;20053;-68
2022/07/03 03:52:01;;;;;;;5.65;5.10;;;15.90;99.90;;;;;;4900276;29;20052;-68
2022/07/03 03:54:27;;;;;;;5.50;4.78;;;16.00;99.90;;;;;;4900363;29;20051;-68
2022/07/03 03:56:53;;;;;;;7.53;5.30;;;16.00;99.90;;;;;;4901186;29;20044;-68
2022/07/03 03:59:18;;;;;;;5.13;4.63;;;16.00;99.90;;;;;;4901711;29;20041;-68
2022/07/03 04:01:45;;;;;;;6.55;5.45;;;16.00;99.90;;;;;;4899639;29;20477;-68
2022/07/03 04:04:12;;;;;;;5.78;5.18;;;16.00;99.90;;;;;;4900358;29;20511;-68
2022/07/03 04:06:38;;;;;;;6.55;5.95;;;16.00;99.90;;;;;;4899302;29;20413;-68
2022/07/03 04:09:03;;;;;;;7.13;6.53;;;16.10;99.90;;;;;;4900666;29;20052;-68
2022/07/03 04:11:32;;;;;;;7.85;7.13;;;16.10;99.90;;;;;;4899361;29;20047;-68
2022/07/03 04:13:57;;;;;;;6.38;5.78;;;16.10;99.90;;;;;;4916147;29;20061;-68
2022/07/03 04:16:23;;;;;;;7.50;6.78;;;16.10;99.90;;;;;;4900824;29;20045;-68
2022/07/03 04:18:49;;;;;;;7.50;6.60;;;16.10;99.90;;;;;;4900215;29;20397;-68
2022/07/03 04:21:14;;;;;;;7.40;6.70;;;16.10;99.90;;;;;;4900445;29;20127;-68
2022/07/03 04:23:40;;;;;;;6.22;5.72;;;16.10;99.90;;;;;;4900100;29;20546;-68
2022/07/03 04:26:06;;;;;;;6.80;6.05;;;16.20;99.90;;;;;;4900051;29;20087;-68
2022/07/03 04:28:32;;;;;;;7.05;6.45;;;16.20;99.90;;;;;;4915289;29;20056;-68
2022/07/03 04:30:58;;;;;;;6.22;5.55;;;16.20;99.90;;;;;;4898260;29;20049;-68
2022/07/03 04:33:24;;;;;;;7.28;6.57;;;16.20;99.90;;;;;;4900170;29;20048;-68
2022/07/03 04:35:49;;;;;;;6.18;5.68;;;16.30;99.90;;;;;;4883618;29;20052;-68
2022/07/03 04:38:15;;;;;;;6.80;6.03;;;16.30;99.90;;;;;;4915502;29;20113;-68
2022/07/03 04:40:41;;;;;;;7.05;5.97;;;16.30;99.90;;;;;;4914636;29;20087;-68
2022/07/03 04:43:06;;;;;;;6.63;6.10;;;16.30;99.90;;;;;;4898879;29;20052;-68
2022/07/03 04:45:32;;;;;;;6.25;5.65;;;16.30;99.90;;;;;;4914438;29;20056;-68
2022/07/03 04:47:57;;;;;;;6.47;5.88;;;16.30;99.90;;;;;;4900832;29;20056;-67
2022/07/03 04:50:23;;;;;;;6.85;5.93;;;16.30;99.90;;;;;;4900057;29;20131;-68
2022/07/03 04:52:49;;;;;;;6.70;6.03;;;16.30;99.90;;;;;;4899346;29;20045;-68
2022/07/03 04:55:15;;;;;;;9.18;6.63;;;16.30;99.90;;;;;;4900483;29;20044;-68
2022/07/03 04:57:41;;;;;;;7.80;6.60;;;16.30;99.90;;;;;;4899806;29;20184;-68
2022/07/03 05:00:07;;;;;;;6.90;6.25;;;16.30;99.90;;;;;;4900043;29;20051;-68
2022/07/03 05:02:33;;;;;;;6.93;6.22;;;16.30;99.90;;;;;;4899732;29;20390;-68
2022/07/03 05:04:59;;;;;;;6.75;6.15;;;16.30;99.90;;;;;;4899958;29;20055;-67
2022/07/03 05:07:25;;;;;;;6.80;5.75;;;16.30;99.90;;;;;;4899615;29;20131;-67
2022/07/03 05:09:50;;;;;;;6.18;5.32;;;16.30;99.90;;;;;;4899640;29;20135;-68
2022/07/03 05:12:19;;;;;;;6.47;5.85;;;16.30;99.90;;;;;;4898027;29;20049;-69
2022/07/03 05:14:45;;;;;;;6.20;5.60;;;16.30;99.90;;;;;;4898328;29;20045;-69
2022/07/03 05:17:10;;;;;;;6.20;5.70;;;16.40;99.90;;;;;;4914289;29;20492;-69
2022/07/03 05:19:39;;;;;;;7.10;6.10;;;16.30;99.90;;;;;;4913867;29;20189;-69
2022/07/03 05:22:05;;;;;;;7.15;5.57;;;16.40;99.90;;;;;;4899313;29;20056;-69
2022/07/03 05:24:30;;;;;;;5.88;5.35;;;16.40;99.90;;;;;;4898784;29;20571;-69
2022/07/03 05:26:56;;;;;;;6.53;5.88;;;16.40;99.90;;;;;;4899352;29;20140;-68
2022/07/03 05:29:22;;;;;;;8.55;5.38;;;16.40;99.90;;;;;;4882754;29;20375;-69
2022/07/03 05:31:47;;;;;;;5.57;4.95;;;16.50;99.90;;;;;;4898451;29;20049;-69
2022/07/03 05:34:13;;;;;;;5.25;4.85;;;16.50;99.90;;;;;;4899329;29;20102;-69
2022/07/03 05:36:39;;;;;;;5.50;4.57;;;16.50;99.90;;;;;;4913844;29;20053;-69
2022/07/03 05:41:48;;;;;;;5.88;5.10;;;16.60;99.90;;;;;;4898992;29;20531;-69
2022/07/03 05:44:14;;;;;;;5.07;4.68;;;16.70;99.90;;;;;;4898361;29;20064;-69
2022/07/03 05:46:40;;;;;;;5.35;4.95;;;16.60;99.90;;;;;;4913483;29;20469;-69
2022/07/03 05:49:05;;;;;;;5.47;4.82;;;16.70;99.90;;;;;;4913773;29;20045;-69
2022/07/03 05:51:31;;;;;;;5.00;4.60;;;16.80;99.90;;;;;;4913510;29;20543;-69
2022/07/03 05:53:57;;;;;;;4.88;4.38;;;16.80;99.90;;;;;;4898304;29;20108;-69
2022/07/03 05:56:23;;;;;;;7.80;4.63;;;16.90;99.90;;;;;;4898525;29;20055;-69
2022/07/03 05:58:49;;;;;;;5.43;3.50;;;17.00;99.90;;;;;;4898571;29;20049;-69
2022/07/03 06:01:14;;;;;;;3.85;3.55;;;17.10;99.90;;;;;;4898713;29;20419;-69
2022/07/03 06:03:40;;;;;;;3.65;3.35;;;17.30;99.90;;;;;;4898947;29;20097;-69
2022/07/03 06:06:06;;;;;;;4.95;3.60;;;17.30;99.90;;;;;;4913143;29;20044;-69
2022/07/03 06:08:31;;;;;;;4.38;3.50;;;17.50;99.90;;;;;;4898612;29;20056;-69
2022/07/03 06:10:57;;;;;;;5.03;3.40;;;17.60;99.90;;;;;;4898595;29;20407;-69
2022/07/03 06:13:23;;;;;;;3.60;3.00;;;17.80;99.90;;;;;;4897597;29;20052;-69
2022/07/03 06:15:49;;;;;;;5.80;3.22;;;17.90;99.90;;;;;;4913538;29;20056;-69
2022/07/03 06:18:14;;;;;;;3.72;2.35;;;18.00;99.90;;;;;;4897744;29;20128;-69
2022/07/03 06:20:40;;;;;;;2.67;2.35;;;18.10;99.90;;;;;;4898217;29;20446;-69
2022/07/03 06:23:06;;;;;;;3.65;2.13;;;18.10;99.90;;;;;;4898013;29;20053;-69
2022/07/03 06:25:31;;;;;;;4.47;2.78;;;18.20;99.90;;;;;;4881953;29;20052;-69
2022/07/03 06:27:57;;;;;;;3.70;1.80;;;18.20;99.90;;;;;;4913168;29;20379;-69
2022/07/03 06:30:23;;;;;;;2.33;1.50;;;18.40;99.90;;;;;;4898479;29;20048;-69
2022/07/03 06:32:48;;;;;;;2.92;1.50;;;18.50;99.90;;;;;;4898355;29;20052;-69
2022/07/03 06:35:14;;;;;;;3.28;1.38;;;18.60;99.90;;;;;;4898659;29;20481;-69
2022/07/03 06:37:40;;;;;;;2.28;1.70;;;18.60;99.90;;;;;;4898565;29;20045;-69
2022/07/03 06:40:06;;;;;;;2.92;1.83;;;18.70;99.90;;;;;;4898411;29;20484;-69
2022/07/03 06:42:32;;;;;;;1.88;1.25;;;18.80;99.90;;;;;;4897423;29;20083;-69
2022/07/03 06:44:58;;;;;;;2.83;1.15;;;18.90;99.90;;;;;;4898287;29;20049;-69
2022/07/03 06:47:23;;;;;;;1.48;0.95;;;18.90;99.90;;;;;;4913108;29;20053;-69
2022/07/03 06:49:49;;;;;;;4.30;1.30;;;19.00;99.90;;;;;;4898314;29;20052;-69
2022/07/03 06:52:15;;;;;;;2.55;1.10;;;19.00;99.90;;;;;;4898159;29;20052;-69
2022/07/03 06:54:43;;;;;;;2.72;1.08;;;19.00;99.90;;;;;;4899488;29;20048;-68
2022/07/03 06:57:10;;;;;;;3.53;1.30;;;19.10;99.90;;;;;;4901984;29;20080;-69
2022/07/03 06:59:36;;;;;;;1.65;1.30;;;19.20;99.90;;;;;;4901955;29;20198;-69
2022/07/03 07:02:02;;;;;;;2.88;1.35;;;19.20;99.90;;;;;;4916364;29;20557;-69
2022/07/03 07:04:30;;;;;;;2.17;1.23;;;19.30;99.90;;;;;;4900785;29;20051;-69
2022/07/03 07:06:56;;;;;;;3.33;1.00;;;19.30;99.90;;;;;;4899796;29;20127;-70
2022/07/03 07:09:22;;;;;;;2.03;1.02;;;19.30;99.90;;;;;;4901105;29;20127;-68
2022/07/03 07:11:47;;;;;;;1.83;0.93;;;19.40;99.90;;;;;;4902005;29;20044;-69
2022/07/03 07:14:13;;;;;;;1.65;1.00;;;19.50;99.90;;;;;;4900724;29;20065;-70
2022/07/03 07:16:39;;;;;;;2.47;0.80;;;19.60;99.90;;;;;;4900623;29;20167;-72
2022/07/03 07:19:04;;;;;;;1.65;0.93;;;19.60;99.90;;;;;;4901049;29;20053;-69
2022/07/03 07:21:30;;;;;;;2.78;1.02;;;19.50;99.90;;;;;;4901582;29;20127;-70
2022/07/03 07:23:58;;;;;;;1.77;0.77;;;19.70;99.90;;;;;;4900105;29;20493;-69
2022/07/03 07:26:23;;;;;;;1.75;0.82;;;19.80;99.90;;;;;;4885178;29;20045;-69
2022/07/03 07:28:49;;;;;;;2.63;0.98;;;19.80;99.90;;;;;;4901725;29;20409;-69
2022/07/03 07:31:15;;;;;;;2.55;1.00;;;19.90;99.90;;;;;;4901027;29;20482;-69
2022/07/03 07:33:40;;;;;;;3.50;1.00;;;20.00;99.90;;;;;;4900241;29;20088;-69
2022/07/03 07:36:06;;;;;;;3.08;0.90;;;20.00;99.90;;;;;;4901436;29;20053;-69
2022/07/03 07:38:33;;;;;;;1.35;0.80;;;20.00;99.90;;;;;;4901508;29;20135;-69
2022/07/03 07:40:59;;;;;;;2.63;0.65;;;20.00;99.90;;;;;;4901365;29;20040;-70
2022/07/03 07:43:25;;;;;;;3.20;0.60;;;20.00;99.90;;;;;;4900127;29;20577;-70
2022/07/03 07:45:52;;;;;;;2.78;0.73;;;20.10;99.90;;;;;;4901335;29;20075;-70
2022/07/03 07:48:18;;;;;;;1.20;0.70;;;20.10;99.90;;;;;;4901371;29;20408;-70
2022/07/03 07:50:44;;;;;;;1.73;0.70;;;20.10;99.90;;;;;;4895997;29;20060;-69
2022/07/03 07:53:10;;;;;;;1.05;0.70;;;20.10;99.90;;;;;;4893634;29;20045;-68
2022/07/03 07:55:35;;;;;;;2.60;0.68;;;20.30;99.90;;;;;;4908331;29;20044;-68
2022/07/03 07:58:01;;;;;;;2.05;0.70;;;20.10;99.90;;;;;;4890050;29;20320;-68
2022/07/03 08:00:27;;;;;;;2.78;0.80;;;20.00;99.90;;;;;;4890263;29;20061;-67
2022/07/03 08:05:37;;;;;;;3.20;0.90;;;20.10;99.90;;;;;;4888388;29;20413;-68
2022/07/03 08:08:11;;;;;;;1.45;0.70;;;20.10;99.90;;;;;;4892829;29;20056;-68
2022/07/03 08:10:50;;;;;;;1.65;0.80;;;20.20;99.90;;;;;;4909510;29;20080;-67
2022/07/03 08:13:19;;;;;;;1.20;0.70;;;20.20;99.90;;;;;;4915378;29;20105;-67
2022/07/03 08:15:49;;;;;;;3.50;0.80;;;20.20;99.90;;;;;;4900769;29;20052;-67
2022/07/03 08:18:15;;;;;;;2.78;0.90;;;20.20;99.90;;;;;;4899744;29;20106;-66
2022/07/03 08:20:40;;;;;;;2.38;0.63;;;20.20;99.90;;;;;;4899663;29;20506;-68
2022/07/03 08:23:06;;;;;;;2.78;0.90;;;20.20;99.90;;;;;;4900157;29;20056;-67
2022/07/03 08:25:32;;;;;;;2.55;0.80;;;20.20;99.90;;;;;;4899618;29;20131;-67
2022/07/03 08:27:58;;;;;;;3.78;0.70;;;20.20;99.90;;;;;;4899356;29;20052;-66
2022/07/03 08:30:24;;;;;;;2.55;0.90;;;20.20;99.90;;;;;;4899494;29;20059;-66
2022/07/03 08:32:54;;;;;;;1.77;0.70;;;20.20;99.90;;;;;;4900716;29;20047;-66
2022/07/03 08:35:20;;;;;;;0.90;0.70;;;20.30;99.90;;;;;;4900436;29;20054;-67
2022/07/03 08:37:47;;;;;;;0.70;0.60;;;20.30;99.90;;;;;;4900414;29;20052;-66
2022/07/03 08:40:14;;;;;;;1.27;0.60;;;20.40;99.90;;;;;;4899215;29;20052;-66
2022/07/03 08:42:54;;;;;;;1.65;0.60;;;20.40;99.90;;;;;;4899323;29;20048;-67
2022/07/03 08:45:21;;;;;;;1.75;0.65;;;20.30;99.90;;;;;;4914838;29;20048;-66
2022/07/03 08:47:48;;;;;;;1.90;0.60;;;20.30;99.90;;;;;;4900571;29;20052;-66
2022/07/03 08:50:20;;;;;;;1.73;0.82;;;20.30;99.90;;;;;;4900085;29;20059;-67
2022/07/03 08:52:47;;;;;;;2.40;0.57;;;20.30;99.90;;;;;;4914088;29;20509;-67
2022/07/03 08:55:14;;;;;;;1.38;0.60;;;20.40;99.90;;;;;;4900023;29;20056;-67
2022/07/03 08:57:41;;;;;;;2.35;0.70;;;20.40;99.90;;;;;;4899033;29;20056;-67
2022/07/03 09:00:10;;;;;;;1.77;0.70;;;20.40;99.90;;;;;;4899916;29;20056;-67
2022/07/03 09:02:40;;;;;;;1.45;1.13;;;20.50;99.90;;;;;;4893470;29;20047;-67
2022/07/03 09:05:08;;;;;;;2.63;0.73;;;20.50;99.90;;;;;;4886605;29;20049;-69
2022/07/03 09:07:39;;;;;;;1.42;0.60;;;20.60;99.90;;;;;;4884644;29;20048;-71
2022/07/03 09:10:07;;;;;;;1.35;0.70;;;20.30;99.90;;;;;;4885789;29;20486;-72
2022/07/03 09:12:36;;;;;;;1.63;0.90;;;20.60;99.90;;;;;;4888239;29;20041;-72
2022/07/03 09:15:07;;;;;;;1.80;0.80;;;20.60;99.90;;;;;;4887021;29;20138;-71
2022/07/03 09:17:33;;;;;;;2.38;0.85;;;20.70;99.90;;;;;;4890564;29;20049;-72
2022/07/03 09:20:00;;;;;;;3.42;0.80;;;20.70;99.90;;;;;;4902517;29;20059;-72
2022/07/03 09:22:29;;;;;;;1.42;0.70;;;20.70;99.90;;;;;;4889850;29;20077;-71
2022/07/03 09:25:03;;;;;;;2.75;0.70;;;20.80;99.90;;;;;;4888310;29;20117;-72
2022/07/03 09:27:29;;;;;;;1.88;0.65;;;20.80;99.90;;;;;;4888162;29;20048;-71
2022/07/03 09:29:59;;;;;;;2.60;0.70;;;20.80;99.90;;;;;;4890535;29;20044;-71
2022/07/03 09:32:30;;;;;;;2.08;0.80;;;20.80;99.90;;;;;;4889425;29;20037;-72
2022/07/03 09:35:14;;;;;;;1.77;0.60;;;20.80;99.90;;;;;;4888572;29;20049;-71
2022/07/03 09:37:47;;;;;;;3.00;0.73;;;20.80;99.90;;;;;;4887850;29;20474;-72
2022/07/03 09:40:13;;;;;;;3.20;0.65;;;20.90;99.90;;;;;;4888551;29;20052;-72
2022/07/03 09:52:55;;;;;;;1.75;0.80;;;21.00;99.90;;;;;;4868955;29;20479;-73
2022/07/03 09:55:21;;;;;;;1.98;0.70;;;21.00;99.90;;;;;;4880323;29;20408;-74
2022/07/03 09:57:49;;;;;;;1.25;0.95;;;21.10;99.90;;;;;;4878653;29;20056;-73
2022/07/03 10:00:35;;;;;;;1.92;0.80;;;21.10;99.90;;;;;;4879720;29;20045;-73
2022/07/03 10:03:05;;;;;;;1.55;0.95;;;21.20;99.90;;;;;;4878932;29;20053;-73
2022/07/03 10:05:41;;;;;;;1.38;0.80;;;21.30;99.90;;;;;;4878638;29;20445;-73
2022/07/03 10:08:15;;;;;;;1.63;0.70;;;21.30;99.90;;;;;;4879162;29;20057;-73
2022/07/03 10:10:48;;;;;;;1.73;0.70;;;21.30;99.90;;;;;;4878971;29;20049;-74
2022/07/03 10:13:15;;;;;;;1.33;0.55;;;21.40;99.90;;;;;;4878361;29;20553;-74
2022/07/03 10:15:42;;;;;;;0.70;0.50;;;21.50;99.90;;;;;;4879585;29;20071;-73
2022/07/03 10:18:12;;;;;;;1.65;0.65;;;21.50;99.90;;;;;;4877972;29;20457;-73
2022/07/03 10:20:46;;;;;;;0.70;0.52;;;21.60;99.90;;;;;;4878231;29;20588;-73
2022/07/03 10:23:14;;;;;;;2.28;0.70;;;21.60;99.90;;;;;;4879470;29;20080;-74
2022/07/03 10:25:44;;;;;;;3.03;0.50;;;21.70;99.90;;;;;;4878225;29;20080;-73
2022/07/03 10:28:14;;;;;;;0.93;0.50;;;21.70;99.90;;;;;;4893197;29;20446;-74
2022/07/03 10:30:42;;;;;;;0.60;0.40;;;21.80;99.90;;;;;;4879276;29;20406;-72
2022/07/03 10:33:08;;;;;;;1.92;0.50;;;21.80;99.90;;;;;;4879538;29;20049;-73
2022/07/03 10:35:35;;;;;;;0.40;0.40;;;21.90;99.90;;;;;;4863523;29;20053;-73
2022/07/03 10:38:01;;;;;;;0.65;0.40;;;22.00;99.90;;;;;;4878055;29;20124;-73
2022/07/03 10:46:32;;;;;;;2.10;0.40;;;22.20;99.90;;;;;;4878355;29;20144;-73
2022/07/03 10:49:02;;;;;;;0.88;0.30;;;22.20;99.90;;;;;;4879539;29;20064;-73
2022/07/03 10:51:41;;;;;;;1.05;0.30;;;22.20;99.90;;;;;;4878011;29;20061;-72
2022/07/03 10:54:30;;;;;;;1.45;0.30;;;22.20;99.90;;;;;;4878389;29;20053;-72
2022/07/03 10:57:01;;;;;;;0.75;0.30;;;22.30;99.90;;;;;;4893966;29;20059;-72
2022/07/03 10:59:42;;;;;;;0.98;0.40;;;22.40;99.90;;;;;;4878875;29;20098;-71
2022/07/03 11:02:17;;;;;;;0.20;0.20;;;22.40;99.90;;;;;;4880216;29;20049;-73
2022/07/03 11:04:58;;;;;;;0.32;0.22;;;22.50;99.90;;;;;;4879586;29;20061;-72
2022/07/03 11:07:24;;;;;;;0.50;0.30;;;22.50;99.90;;;;;;4880132;29;20064;-73
2022/07/03 11:10:12;;;;;;;0.82;0.30;;;22.50;99.90;;;;;;4878875;29;20128;-71
2022/07/03 11:12:53;;;;;;;1.23;0.30;;;22.50;99.90;;;;;;4878391;29;20085;-72
2022/07/03 11:15:29;;;;;;;1.00;0.30;;;22.50;99.90;;;;;;4878789;29;20056;-75
2022/07/03 11:18:17;;;;;;;0.40;0.20;;;22.50;99.90;;;;;;4878454;29;20113;-73
2022/07/03 11:20:43;;;;;;;0.22;0.22;;;22.60;99.90;;;;;;4880596;29;20089;-75
2022/07/03 11:23:27;;;;;;;0.65;0.28;;;22.70;99.90;;;;;;4862772;29;20088;-73
2022/07/03 11:25:57;;;;;;;1.33;0.30;;;22.70;99.90;;;;;;4878363;29;20374;-73
2022/07/03 11:28:32;;;;;;;1.38;0.20;;;22.70;99.90;;;;;;4893938;29;20049;-73
2022/07/03 11:33:54;;;;;;;0.30;0.30;;;22.90;99.90;;;;;;4879445;29;20057;-73
2022/07/03 11:36:27;;;;;;;1.17;0.28;;;23.00;99.90;;;;;;4879370;29;20090;-74
2022/07/03 11:38:57;;;;;;;1.60;0.40;;;23.00;99.70;;;;;;4878968;29;20057;-74
2022/07/03 11:41:24;;;;;;;0.45;0.30;;;22.90;99.50;;;;;;4881738;29;20057;-73
2022/07/03 11:43:58;;;;;;;0.30;0.30;;;22.90;99.10;;;;;;4882723;29;20064;-74
2022/07/03 11:46:28;;;;;;;0.40;0.25;;;22.90;98.50;;;;;;4882590;29;20056;-74
2022/07/03 11:49:11;;;;;;;1.83;0.30;;;22.80;98.90;;;;;;4881510;29;20389;-73
2022/07/03 11:51:38;;;;;;;0.82;0.30;;;22.80;98.80;;;;;;4881340;29;20056;-73
2022/07/03 11:54:04;;;;;;;2.15;0.30;;;22.80;98.30;;;;;;4882482;29;20117;-74
2022/07/03 11:56:31;;;;;;;0.55;0.30;;;22.70;98.50;;;;;;4882472;29;20052;-75
2022/07/03 11:59:00;;;;;;;1.92;0.40;;;22.60;99.10;;;;;;4881599;29;20061;-73
2022/07/03 12:01:25;;;;;;;0.73;0.50;;;22.60;99.90;;;;;;4881602;29;20045;-73
2022/07/03 12:04:04;;;;;;;0.80;0.30;;;22.60;99.90;;;;;;4882199;29;20117;-76
2022/07/03 12:06:37;;;;;;;0.75;0.30;;;22.70;99.90;;;;;;4882988;29;20367;-72
2022/07/03 12:09:15;;;;;;;1.48;0.40;;;22.80;99.50;;;;;;4882080;29;20053;-74
2022/07/03 12:11:42;;;;;;;1.45;0.40;;;22.80;98.30;;;;;;4882743;29;20049;-73
2022/07/03 12:14:07;;;;;;;1.10;0.40;;;22.70;99.50;;;;;;4881984;29;20075;-72
2022/07/03 12:16:34;;;;;;;1.88;0.30;;;22.80;99.50;;;;;;4882214;29;20132;-72
2022/07/03 12:19:05;;;;;;;0.77;0.30;;;22.80;99.20;;;;;;4882472;29;20053;-73
2022/07/03 12:21:39;;;;;;;0.35;0.30;;;22.80;98.40;;;;;;4882047;29;20052;-72
2022/07/03 12:24:13;;;;;;;0.80;0.30;;;22.80;97.70;;;;;;4881683;29;20051;-72
2022/07/03 12:26:39;;;;;;;1.00;0.20;;;22.70;97.20;;;;;;4881586;29;20053;-72
2022/07/03 12:29:12;;;;;;;1.83;0.22;;;22.80;97.40;;;;;;4881377;29;20060;-70
2022/07/03 12:31:42;;;;;;;0.77;0.30;;;22.80;96.40;;;;;;4880949;29;20401;-72
2022/07/03 12:34:10;;;;;;;0.40;0.30;;;22.90;97.10;;;;;;4882167;29;20055;-71
2022/07/03 12:36:36;;;;;;;1.40;0.30;;;23.00;97.30;;;;;;4881245;29;20433;-71
2022/07/03 12:39:02;;;;;;;0.65;0.40;;;23.10;96.80;;;;;;4881454;29;20060;-72
2022/07/03 12:41:28;;;;;;;0.50;0.30;;;23.20;96.10;;;;;;4881174;29;20045;-72
2022/07/03 12:43:55;;;;;;;1.02;0.20;;;23.10;95.60;;;;;;4881835;29;20367;-71
2022/07/03 12:46:34;;;;;;;0.40;0.30;;;23.00;95.60;;;;;;4880143;29;20501;-72
2022/07/03 12:49:08;;;;;;;1.38;0.40;;;23.00;95.80;;;;;;4880311;29;20121;-71
2022/07/03 12:51:40;;;;;;;1.02;0.38;;;23.00;96.10;;;;;;4880246;29;20192;-69
2022/07/03 12:54:10;;;;;;;0.60;0.30;;;23.10;95.00;;;;;;4881192;29;20430;-72
2022/07/03 12:56:36;;;;;;;0.77;0.35;;;23.20;95.40;;;;;;4881095;29;20139;-68
2022/07/03 12:59:16;;;;;;;1.08;0.47;;;23.20;95.20;;;;;;4895209;29;20144;-69
2022/07/03 13:02:00;;;;;;;1.23;0.57;;;23.30;95.30;;;;;;4880704;29;20045;-69
2022/07/03 13:04:35;;;;;;;0.93;0.40;;;23.40;95.90;;;;;;4881111;29;20049;-70
2022/07/03 13:07:06;;;;;;;1.20;0.70;;;23.30;95.40;;;;;;4881290;29;20120;-70
2022/07/03 13:09:40;;;;;;;2.08;0.75;;;23.20;95.60;;;;;;4879634;29;20473;-70
2022/07/03 13:12:06;;;;;;;2.58;0.70;;;23.10;98.50;;;;;;4894977;29;20044;-69
2022/07/03 13:14:31;;;;;;;4.07;0.93;;;23.00;99.80;;;;;;4880447;29;20413;-70
2022/07/03 13:16:58;;;;;;;3.13;0.70;;;22.90;99.90;;;;;;4880332;29;20116;-70
2022/07/03 13:19:25;;;;;;;5.53;0.95;;;22.80;99.90;;;;;;4880407;29;20049;-71
2022/07/03 13:21:53;;;;;;;4.43;0.75;;;22.80;99.90;;;;;;4880633;29;20156;-70
2022/07/03 13:24:20;;;;;;;5.80;0.77;;;22.80;99.90;;;;;;4880671;29;20124;-70